Sugar Bush, Minnesota
Current Conditions -  °F | °C
As of 8:13 AM on Saturday 25 Oct 2014 (Local Time) from KBJI Reporting Station
Clear Clear  
Wind Chill: 33°   Ceiling: Unl
Heat Index: 40°   Visibility: 10mi
Dew Point: 32°   Wind: 10mph
Humidity: 72%   Direction: 280°W
Pressure: 29.98"   Gusts: NA
Location:  47.5271°N, 94.7611°W
Report Text: KBJI 251313Z AUTO 28009KT 10SM CLR 04/00 A2998 RMK AO2 T00441002
Loading
Personal Weather Stations






























Interactive Weather Map New forecast layout! Learn more

10-Day Weather Forecast

Advertisements
Track Severe Weather on mobile